Terminal Aerodrome Forecast
Issued by NWS Chicago, IL

Home | Current Version | Previous Version | Graphics & Text | Print | Product List | Glossary On
Versions: 1 2 3 4 5 6 7 8 9 10 11 12 13 14 15 16 17 18 19 20 21 22 23 24 25 26 27 28 29 30 31 32 33 34 35 36 37
000
FTUS43 KLOT 231700
TAFRFD
TAF
KRFD 231736Z 2318/2418 20016G20KT P6SM SCT060 OVC150
     FM231900 20009KT P6SM SCT030 OVC060
      TEMPO 2319/2322 -SHRA SCT020 OVC035
     FM232200 20004KT 6SM BR OVC020
     FM240600 VRB03KT 2SM BR BKN015
     FM240900 VRB03KT 1/2SM FG BKN010
     FM241200 VRB03KT 1/4SM FG BKN010
     FM241400 21006KT P6SM SCT010 BKN025=

USA.gov is the U.S. government's official web portal to all federal, state and local government web resources and services.